메인 페이지
METAR-TAF:

METAR-TAF

공항 :

벨리즈시티, 벨리즈

Phillip Goldston

위도: 17-32N, 경도: 088-18W, 고도: 5m

현재 날씨관측

예보는 2 시간 59분 전, 02:00시(UTC)에 발표되었습니다.
4kt
온도 21°C
습도 88%
기압 1019 hPa
시정 10km 이상
고도 1800ft 상공 구름 조금

METAR: MZBZ 200200Z 01004KT 9999 FEW018 21/19 A3009 Q1019 NOSIG

시각: 22:59 (04:59 UTC)

예보

예보는 7 시간 59분 전, 21:00시(UTC)에 발표되었습니다.
예보 대상 시간: 20일 00시부터 20일 24시까지 (UTC)
북동10kt
시정 10km 이상
고도 2300ft 상공 구름 조금
고도 4500ft 상공 구름 많음
전환 중
20일 04시부터 20일 06시까지 (UTC)
5kt
전환 중
20일 14시부터 20일 16시까지 (UTC)
북동8kt
확률 30% :
일시적
20일 20시부터 20일 24시까지 (UTC)
시정: 5000m
고도 1500ft 상공 구름 많음
고도 3500ft 상공 구름 많음
소나기

TAF: MZBZ 192100Z 2000/2024 04010KT 9999 FEW023 BKN045 BECMG 2004/2006 35005KT BECMG 2014/2016 05008KT PROB30 TEMPO 2020/2024 5000 SHRA BKN015 BKN035

4,000개 이상의 공항 관측 자료 및 예보 (METAR 및 TAF 보고).

지도상에서 검색 가능한 기상관측소가 노란 점과 빨간 점으로 표시되어 있습니다.

기상관측소 명을 보려면 표시 위로 마우스를 이동하세요.

날씨 관측과 예보를 보려면 클릭하세요.

지도 변경 : 확대하려면 엑스 표시가 있는 녹색 버튼, 축소하려면 빼기 표시가 있는 녹색 버튼, 다음 페이지의 지도를 보려면 녹색 화살표를 클릭하세요.


METAR-TAF: